sensor_id;sensor_type;location;lat;lon;timestamp;P1;durP1;ratioP1;P2;durP2;ratioP2
7334;SDS011;3708;42.632;23.378;2023-06-14T00:00:34;12.17;;;10.37;;
7334;SDS011;3708;42.632;23.378;2023-06-14T00:03:01;13.43;;;9.80;;
7334;SDS011;3708;42.632;23.378;2023-06-14T00:05:28;11.50;;;9.37;;
7334;SDS011;3708;42.632;23.378;2023-06-14T00:08:21;12.93;;;9.40;;
7334;SDS011;3708;42.632;23.378;2023-06-14T00:10:49;9.73;;;8.50;;
7334;SDS011;3708;42.632;23.378;2023-06-14T00:13:16;13.60;;;10.30;;
7334;SDS011;3708;42.632;23.378;2023-06-14T00:15:46;12.37;;;8.80;;
7334;SDS011;3708;42.632;23.378;2023-06-14T00:18:14;12.00;;;9.33;;
7334;SDS011;3708;42.632;23.378;2023-06-14T00:21:10;14.20;;;8.87;;
7334;SDS011;3708;42.632;23.378;2023-06-14T00:23:43;9.80;;;7.70;;
7334;SDS011;3708;42.632;23.378;2023-06-14T00:26:21;8.20;;;7.20;;
7334;SDS011;3708;42.632;23.378;2023-06-14T00:28:48;9.90;;;8.70;;
7334;SDS011;3708;42.632;23.378;2023-06-14T00:31:19;9.57;;;7.70;;
7334;SDS011;3708;42.632;23.378;2023-06-14T00:33:46;11.03;;;8.70;;
7334;SDS011;3708;42.632;23.378;2023-06-14T00:36:13;11.20;;;8.23;;
7334;SDS011;3708;42.632;23.378;2023-06-14T00:38:41;11.00;;;8.57;;
7334;SDS011;3708;42.632;23.378;2023-06-14T00:41:07;12.57;;;8.20;;
7334;SDS011;3708;42.632;23.378;2023-06-14T00:43:34;10.73;;;8.63;;
7334;SDS011;3708;42.632;23.378;2023-06-14T00:46:01;16.27;;;8.60;;
7334;SDS011;3708;42.632;23.378;2023-06-14T00:48:30;12.63;;;8.50;;
7334;SDS011;3708;42.632;23.378;2023-06-14T00:50:57;11.13;;;8.60;;
7334;SDS011;3708;42.632;23.378;2023-06-14T00:53:29;10.43;;;8.37;;
7334;SDS011;3708;42.632;23.378;2023-06-14T00:55:59;14.10;;;8.73;;
7334;SDS011;3708;42.632;23.378;2023-06-14T00:58:26;21.00;;;9.63;;
7334;SDS011;3708;42.632;23.378;2023-06-14T01:00:53;11.97;;;8.93;;
7334;SDS011;3708;42.632;23.378;2023-06-14T01:03:25;14.00;;;8.80;;
7334;SDS011;3708;42.632;23.378;2023-06-14T01:05:56;10.50;;;8.03;;
7334;SDS011;3708;42.632;23.378;2023-06-14T01:08:35;9.60;;;8.50;;
7334;SDS011;3708;42.632;23.378;2023-06-14T01:11:10;10.63;;;8.93;;
7334;SDS011;3708;42.632;23.378;2023-06-14T01:13:43;13.03;;;8.97;;
7334;SDS011;3708;42.632;23.378;2023-06-14T01:16:12;14.23;;;8.87;;
7334;SDS011;3708;42.632;23.378;2023-06-14T01:18:40;11.83;;;9.80;;
7334;SDS011;3708;42.632;23.378;2023-06-14T01:21:22;13.23;;;9.07;;
7334;SDS011;3708;42.632;23.378;2023-06-14T01:23:51;10.20;;;8.10;;
7334;SDS011;3708;42.632;23.378;2023-06-14T01:26:20;9.97;;;8.63;;
7334;SDS011;3708;42.632;23.378;2023-06-14T01:28:47;12.77;;;9.17;;
7334;SDS011;3708;42.632;23.378;2023-06-14T01:31:16;11.07;;;8.00;;
7334;SDS011;3708;42.632;23.378;2023-06-14T01:33:46;14.67;;;8.87;;
7334;SDS011;3708;42.632;23.378;2023-06-14T01:36:15;15.03;;;8.30;;
7334;SDS011;3708;42.632;23.378;2023-06-14T01:38:44;9.43;;;8.20;;
7334;SDS011;3708;42.632;23.378;2023-06-14T01:41:13;12.83;;;7.83;;
7334;SDS011;3708;42.632;23.378;2023-06-14T01:43:41;9.90;;;7.70;;
7334;SDS011;3708;42.632;23.378;2023-06-14T01:46:09;10.17;;;8.00;;
7334;SDS011;3708;42.632;23.378;2023-06-14T01:48:36;9.20;;;8.20;;
7334;SDS011;3708;42.632;23.378;2023-06-14T01:51:04;11.30;;;8.10;;
7334;SDS011;3708;42.632;23.378;2023-06-14T01:53:31;9.37;;;7.40;;
7334;SDS011;3708;42.632;23.378;2023-06-14T01:55:58;8.60;;;7.50;;
7334;SDS011;3708;42.632;23.378;2023-06-14T01:58:28;8.43;;;7.60;;
7334;SDS011;3708;42.632;23.378;2023-06-14T02:00:55;9.03;;;7.10;;
7334;SDS011;3708;42.632;23.378;2023-06-14T02:03:23;8.20;;;7.37;;
7334;SDS011;3708;42.632;23.378;2023-06-14T02:05:50;7.47;;;6.77;;
7334;SDS011;3708;42.632;23.378;2023-06-14T02:08:17;8.93;;;7.03;;
7334;SDS011;3708;42.632;23.378;2023-06-14T02:10:44;8.47;;;7.53;;
7334;SDS011;3708;42.632;23.378;2023-06-14T02:13:11;9.40;;;6.93;;
7334;SDS011;3708;42.632;23.378;2023-06-14T02:15:40;8.27;;;7.13;;
7334;SDS011;3708;42.632;23.378;2023-06-14T02:18:09;12.77;;;7.13;;
7334;SDS011;3708;42.632;23.378;2023-06-14T02:20:36;7.63;;;6.83;;
7334;SDS011;3708;42.632;23.378;2023-06-14T02:23:03;8.10;;;7.17;;
7334;SDS011;3708;42.632;23.378;2023-06-14T02:25:30;10.47;;;8.07;;
7334;SDS011;3708;42.632;23.378;2023-06-14T02:27:57;17.83;;;6.87;;
7334;SDS011;3708;42.632;23.378;2023-06-14T02:30:24;10.37;;;5.97;;
7334;SDS011;3708;42.632;23.378;2023-06-14T02:32:52;6.57;;;5.63;;
7334;SDS011;3708;42.632;23.378;2023-06-14T02:35:19;9.03;;;5.97;;
7334;SDS011;3708;42.632;23.378;2023-06-14T02:37:49;7.00;;;6.03;;
7334;SDS011;3708;42.632;23.378;2023-06-14T02:40:17;7.83;;;6.17;;
7334;SDS011;3708;42.632;23.378;2023-06-14T02:42:44;8.23;;;5.97;;
7334;SDS011;3708;42.632;23.378;2023-06-14T02:45:11;5.80;;;5.27;;
7334;SDS011;3708;42.632;23.378;2023-06-14T02:47:38;7.50;;;6.73;;
7334;SDS011;3708;42.632;23.378;2023-06-14T02:50:07;6.60;;;5.60;;
7334;SDS011;3708;42.632;23.378;2023-06-14T02:52:34;7.10;;;6.37;;
7334;SDS011;3708;42.632;23.378;2023-06-14T02:55:03;8.00;;;6.87;;
7334;SDS011;3708;42.632;23.378;2023-06-14T02:57:31;7.43;;;6.63;;
7334;SDS011;3708;42.632;23.378;2023-06-14T02:59:58;10.33;;;6.10;;
7334;SDS011;3708;42.632;23.378;2023-06-14T03:02:25;9.40;;;6.50;;
7334;SDS011;3708;42.632;23.378;2023-06-14T03:04:52;8.67;;;6.77;;
7334;SDS011;3708;42.632;23.378;2023-06-14T03:07:20;11.00;;;6.60;;
7334;SDS011;3708;42.632;23.378;2023-06-14T03:09:48;8.50;;;7.27;;
7334;SDS011;3708;42.632;23.378;2023-06-14T03:12:16;10.53;;;6.27;;
7334;SDS011;3708;42.632;23.378;2023-06-14T03:14:42;9.33;;;6.70;;
7334;SDS011;3708;42.632;23.378;2023-06-14T03:17:11;9.03;;;7.07;;
7334;SDS011;3708;42.632;23.378;2023-06-14T03:19:38;9.27;;;6.80;;
7334;SDS011;3708;42.632;23.378;2023-06-14T03:22:06;7.83;;;6.40;;
7334;SDS011;3708;42.632;23.378;2023-06-14T03:24:35;11.83;;;6.37;;
7334;SDS011;3708;42.632;23.378;2023-06-14T03:27:02;10.47;;;6.47;;
7334;SDS011;3708;42.632;23.378;2023-06-14T03:29:30;8.57;;;6.47;;
7334;SDS011;3708;42.632;23.378;2023-06-14T03:31:57;7.77;;;6.63;;
7334;SDS011;3708;42.632;23.378;2023-06-14T03:34:25;9.67;;;6.50;;
7334;SDS011;3708;42.632;23.378;2023-06-14T03:36:52;9.57;;;7.10;;
7334;SDS011;3708;42.632;23.378;2023-06-14T03:39:19;8.07;;;6.63;;
7334;SDS011;3708;42.632;23.378;2023-06-14T03:41:48;8.50;;;6.20;;
7334;SDS011;3708;42.632;23.378;2023-06-14T03:44:15;7.97;;;6.00;;
7334;SDS011;3708;42.632;23.378;2023-06-14T03:46:43;12.47;;;7.07;;
7334;SDS011;3708;42.632;23.378;2023-06-14T03:49:11;11.07;;;7.83;;
7334;SDS011;3708;42.632;23.378;2023-06-14T03:51:38;7.63;;;5.93;;
7334;SDS011;3708;42.632;23.378;2023-06-14T03:54:06;8.83;;;5.53;;
7334;SDS011;3708;42.632;23.378;2023-06-14T03:56:33;6.37;;;5.77;;
7334;SDS011;3708;42.632;23.378;2023-06-14T03:59:01;10.00;;;6.60;;
7334;SDS011;3708;42.632;23.378;2023-06-14T04:01:28;8.47;;;6.53;;
7334;SDS011;3708;42.632;23.378;2023-06-14T04:03:56;9.00;;;5.97;;
7334;SDS011;3708;42.632;23.378;2023-06-14T04:06:24;9.47;;;6.87;;
7334;SDS011;3708;42.632;23.378;2023-06-14T04:08:58;8.83;;;7.33;;
7334;SDS011;3708;42.632;23.378;2023-06-14T04:11:29;12.70;;;7.90;;
7334;SDS011;3708;42.632;23.378;2023-06-14T04:13:56;8.90;;;7.43;;
7334;SDS011;3708;42.632;23.378;2023-06-14T04:16:25;8.87;;;7.83;;
7334;SDS011;3708;42.632;23.378;2023-06-14T04:18:53;8.07;;;7.23;;
7334;SDS011;3708;42.632;23.378;2023-06-14T04:21:20;9.77;;;7.63;;
7334;SDS011;3708;42.632;23.378;2023-06-14T04:23:48;10.10;;;6.90;;
7334;SDS011;3708;42.632;23.378;2023-06-14T04:26:17;9.87;;;7.10;;
7334;SDS011;3708;42.632;23.378;2023-06-14T04:28:45;12.90;;;7.40;;
7334;SDS011;3708;42.632;23.378;2023-06-14T04:31:21;8.30;;;7.07;;
7334;SDS011;3708;42.632;23.378;2023-06-14T04:34:06;13.60;;;7.93;;
7334;SDS011;3708;42.632;23.378;2023-06-14T04:36:33;9.20;;;6.63;;
7334;SDS011;3708;42.632;23.378;2023-06-14T04:39:02;7.37;;;6.63;;
7334;SDS011;3708;42.632;23.378;2023-06-14T04:41:29;9.50;;;6.87;;
7334;SDS011;3708;42.632;23.378;2023-06-14T04:43:57;11.93;;;7.03;;
7334;SDS011;3708;42.632;23.378;2023-06-14T04:46:26;12.13;;;7.07;;
7334;SDS011;3708;42.632;23.378;2023-06-14T04:48:53;10.57;;;7.80;;
7334;SDS011;3708;42.632;23.378;2023-06-14T04:51:22;9.37;;;7.13;;
7334;SDS011;3708;42.632;23.378;2023-06-14T04:53:54;9.10;;;8.03;;
7334;SDS011;3708;42.632;23.378;2023-06-14T04:56:23;13.17;;;7.67;;
7334;SDS011;3708;42.632;23.378;2023-06-14T04:58:51;8.77;;;7.20;;
7334;SDS011;3708;42.632;23.378;2023-06-14T05:01:18;15.90;;;8.97;;
7334;SDS011;3708;42.632;23.378;2023-06-14T05:03:45;14.30;;;8.83;;
7334;SDS011;3708;42.632;23.378;2023-06-14T05:06:14;13.03;;;8.47;;
7334;SDS011;3708;42.632;23.378;2023-06-14T05:08:42;12.03;;;8.30;;
7334;SDS011;3708;42.632;23.378;2023-06-14T05:11:09;23.23;;;9.23;;
7334;SDS011;3708;42.632;23.378;2023-06-14T05:13:35;9.60;;;8.33;;
7334;SDS011;3708;42.632;23.378;2023-06-14T05:16:02;13.37;;;8.93;;
7334;SDS011;3708;42.632;23.378;2023-06-14T05:18:29;14.53;;;9.60;;
7334;SDS011;3708;42.632;23.378;2023-06-14T05:20:56;13.00;;;9.43;;
7334;SDS011;3708;42.632;23.378;2023-06-14T05:23:23;15.53;;;9.77;;
7334;SDS011;3708;42.632;23.378;2023-06-14T05:25:51;14.93;;;10.07;;
7334;SDS011;3708;42.632;23.378;2023-06-14T05:28:19;14.03;;;10.10;;
7334;SDS011;3708;42.632;23.378;2023-06-14T05:30:46;14.13;;;10.03;;
7334;SDS011;3708;42.632;23.378;2023-06-14T05:33:13;14.03;;;10.73;;
7334;SDS011;3708;42.632;23.378;2023-06-14T05:35:40;16.80;;;10.33;;
7334;SDS011;3708;42.632;23.378;2023-06-14T05:38:07;13.60;;;10.60;;
7334;SDS011;3708;42.632;23.378;2023-06-14T05:40:34;19.33;;;11.10;;
7334;SDS011;3708;42.632;23.378;2023-06-14T05:43:02;14.70;;;10.77;;
7334;SDS011;3708;42.632;23.378;2023-06-14T05:45:29;16.73;;;10.50;;
7334;SDS011;3708;42.632;23.378;2023-06-14T05:47:55;14.37;;;11.83;;
7334;SDS011;3708;42.632;23.378;2023-06-14T05:50:22;14.97;;;10.90;;
7334;SDS011;3708;42.632;23.378;2023-06-14T05:52:49;20.07;;;11.17;;
7334;SDS011;3708;42.632;23.378;2023-06-14T05:55:16;16.03;;;10.83;;
7334;SDS011;3708;42.632;23.378;2023-06-14T05:57:43;13.40;;;12.00;;
7334;SDS011;3708;42.632;23.378;2023-06-14T06:00:12;15.37;;;10.73;;
7334;SDS011;3708;42.632;23.378;2023-06-14T06:02:40;16.50;;;10.90;;
7334;SDS011;3708;42.632;23.378;2023-06-14T06:05:08;24.33;;;12.43;;
7334;SDS011;3708;42.632;23.378;2023-06-14T06:07:35;15.23;;;13.07;;
7334;SDS011;3708;42.632;23.378;2023-06-14T06:10:02;18.40;;;11.87;;
7334;SDS011;3708;42.632;23.378;2023-06-14T06:12:30;16.70;;;12.07;;
7334;SDS011;3708;42.632;23.378;2023-06-14T06:14:57;17.87;;;12.03;;
7334;SDS011;3708;42.632;23.378;2023-06-14T06:17:26;15.23;;;11.43;;
7334;SDS011;3708;42.632;23.378;2023-06-14T06:19:53;19.57;;;11.97;;
7334;SDS011;3708;42.632;23.378;2023-06-14T06:22:20;17.97;;;10.57;;
7334;SDS011;3708;42.632;23.378;2023-06-14T06:24:47;13.50;;;10.93;;
7334;SDS011;3708;42.632;23.378;2023-06-14T06:27:14;16.13;;;12.33;;
7334;SDS011;3708;42.632;23.378;2023-06-14T06:29:41;17.23;;;12.00;;
7334;SDS011;3708;42.632;23.378;2023-06-14T06:32:08;13.37;;;11.07;;
7334;SDS011;3708;42.632;23.378;2023-06-14T06:34:36;12.00;;;10.70;;
7334;SDS011;3708;42.632;23.378;2023-06-14T06:37:03;17.10;;;11.80;;
7334;SDS011;3708;42.632;23.378;2023-06-14T06:39:31;12.53;;;10.33;;
7334;SDS011;3708;42.632;23.378;2023-06-14T06:41:57;16.30;;;11.27;;
7334;SDS011;3708;42.632;23.378;2023-06-14T06:44:24;14.90;;;10.50;;
7334;SDS011;3708;42.632;23.378;2023-06-14T06:46:51;15.20;;;10.60;;
7334;SDS011;3708;42.632;23.378;2023-06-14T06:49:18;15.07;;;11.18;;
7334;SDS011;3708;42.632;23.378;2023-06-14T06:51:59;16.80;;;11.53;;
7334;SDS011;3708;42.632;23.378;2023-06-14T06:54:27;17.00;;;12.00;;
7334;SDS011;3708;42.632;23.378;2023-06-14T06:56:54;20.73;;;12.50;;
7334;SDS011;3708;42.632;23.378;2023-06-14T06:59:21;16.90;;;11.07;;
7334;SDS011;3708;42.632;23.378;2023-06-14T07:01:48;11.17;;;9.93;;
7334;SDS011;3708;42.632;23.378;2023-06-14T07:04:15;12.32;;;10.57;;
7334;SDS011;3708;42.632;23.378;2023-06-14T07:06:42;15.73;;;10.30;;
7334;SDS011;3708;42.632;23.378;2023-06-14T07:09:11;13.70;;;11.18;;
7334;SDS011;3708;42.632;23.378;2023-06-14T07:11:39;13.23;;;10.67;;
7334;SDS011;3708;42.632;23.378;2023-06-14T07:14:06;18.10;;;11.55;;
7334;SDS011;3708;42.632;23.378;2023-06-14T07:16:33;17.95;;;12.85;;
7334;SDS011;3708;42.632;23.378;2023-06-14T07:19:00;15.50;;;10.95;;
7334;SDS011;3708;42.632;23.378;2023-06-14T07:21:28;13.70;;;11.93;;
7334;SDS011;3708;42.632;23.378;2023-06-14T07:23:54;20.80;;;12.63;;
7334;SDS011;3708;42.632;23.378;2023-06-14T07:26:23;14.13;;;10.63;;
7334;SDS011;3708;42.632;23.378;2023-06-14T07:28:50;14.93;;;10.65;;
7334;SDS011;3708;42.632;23.378;2023-06-14T07:31:18;11.63;;;10.35;;
7334;SDS011;3708;42.632;23.378;2023-06-14T07:33:45;16.98;;;11.13;;
7334;SDS011;3708;42.632;23.378;2023-06-14T07:36:12;13.82;;;11.50;;
7334;SDS011;3708;42.632;23.378;2023-06-14T07:38:38;14.90;;;10.93;;
7334;SDS011;3708;42.632;23.378;2023-06-14T07:41:05;10.85;;;9.73;;
7334;SDS011;3708;42.632;23.378;2023-06-14T07:43:33;11.30;;;9.73;;
7334;SDS011;3708;42.632;23.378;2023-06-14T07:46:00;14.27;;;10.40;;
7334;SDS011;3708;42.632;23.378;2023-06-14T07:48:28;10.43;;;9.27;;
7334;SDS011;3708;42.632;23.378;2023-06-14T07:50:55;16.50;;;11.02;;
7334;SDS011;3708;42.632;23.378;2023-06-14T07:53:22;12.07;;;9.95;;
7334;SDS011;3708;42.632;23.378;2023-06-14T07:55:49;18.15;;;11.60;;
7334;SDS011;3708;42.632;23.378;2023-06-14T07:58:16;13.00;;;11.10;;
7334;SDS011;3708;42.632;23.378;2023-06-14T08:00:44;17.48;;;11.70;;
7334;SDS011;3708;42.632;23.378;2023-06-14T08:03:11;17.55;;;12.02;;
7334;SDS011;3708;42.632;23.378;2023-06-14T08:05:38;13.23;;;11.40;;
7334;SDS011;3708;42.632;23.378;2023-06-14T08:08:05;15.73;;;10.20;;
7334;SDS011;3708;42.632;23.378;2023-06-14T08:10:31;12.48;;;10.98;;
7334;SDS011;3708;42.632;23.378;2023-06-14T08:12:58;11.98;;;10.13;;
7334;SDS011;3708;42.632;23.378;2023-06-14T08:15:25;13.07;;;10.15;;
7334;SDS011;3708;42.632;23.378;2023-06-14T08:17:53;12.45;;;10.88;;
7334;SDS011;3708;42.632;23.378;2023-06-14T08:20:20;12.45;;;9.50;;
7334;SDS011;3708;42.632;23.378;2023-06-14T08:22:47;11.80;;;9.38;;
7334;SDS011;3708;42.632;23.378;2023-06-14T08:25:14;13.57;;;8.68;;
7334;SDS011;3708;42.632;23.378;2023-06-14T08:27:40;10.73;;;9.10;;
7334;SDS011;3708;42.632;23.378;2023-06-14T08:30:08;12.25;;;9.38;;
7334;SDS011;3708;42.632;23.378;2023-06-14T08:32:35;14.43;;;9.77;;
7334;SDS011;3708;42.632;23.378;2023-06-14T08:35:04;10.60;;;8.80;;
7334;SDS011;3708;42.632;23.378;2023-06-14T08:37:32;9.40;;;8.45;;
7334;SDS011;3708;42.632;23.378;2023-06-14T08:39:59;13.25;;;9.25;;
7334;SDS011;3708;42.632;23.378;2023-06-14T08:42:26;9.07;;;8.15;;
7334;SDS011;3708;42.632;23.378;2023-06-14T08:44:53;10.43;;;8.63;;
7334;SDS011;3708;42.632;23.378;2023-06-14T08:47:20;12.55;;;9.30;;
7334;SDS011;3708;42.632;23.378;2023-06-14T08:49:49;11.65;;;8.57;;
7334;SDS011;3708;42.632;23.378;2023-06-14T08:52:18;14.88;;;9.70;;
7334;SDS011;3708;42.632;23.378;2023-06-14T08:54:47;13.90;;;10.32;;
7334;SDS011;3708;42.632;23.378;2023-06-14T08:57:15;11.88;;;9.15;;
7334;SDS011;3708;42.632;23.378;2023-06-14T08:59:45;10.00;;;8.98;;
7334;SDS011;3708;42.632;23.378;2023-06-14T09:02:17;15.13;;;9.80;;
7334;SDS011;3708;42.632;23.378;2023-06-14T09:04:47;12.38;;;9.63;;
7334;SDS011;3708;42.632;23.378;2023-06-14T09:07:15;13.98;;;9.05;;
7334;SDS011;3708;42.632;23.378;2023-06-14T09:09:43;12.57;;;9.13;;
7334;SDS011;3708;42.632;23.378;2023-06-14T09:12:10;12.23;;;8.82;;
7334;SDS011;3708;42.632;23.378;2023-06-14T09:14:37;8.95;;;8.02;;
7334;SDS011;3708;42.632;23.378;2023-06-14T09:17:07;10.32;;;9.23;;
7334;SDS011;3708;42.632;23.378;2023-06-14T09:19:33;13.75;;;8.80;;
7334;SDS011;3708;42.632;23.378;2023-06-14T09:22:02;12.10;;;9.43;;
7334;SDS011;3708;42.632;23.378;2023-06-14T09:24:30;9.70;;;8.70;;
7334;SDS011;3708;42.632;23.378;2023-06-14T09:26:58;10.30;;;8.82;;
7334;SDS011;3708;42.632;23.378;2023-06-14T09:29:25;8.85;;;7.90;;
7334;SDS011;3708;42.632;23.378;2023-06-14T09:31:53;10.18;;;8.93;;
7334;SDS011;3708;42.632;23.378;2023-06-14T09:34:20;9.75;;;8.45;;
7334;SDS011;3708;42.632;23.378;2023-06-14T09:36:48;11.65;;;8.57;;
7334;SDS011;3708;42.632;23.378;2023-06-14T09:39:18;10.00;;;9.00;;
7334;SDS011;3708;42.632;23.378;2023-06-14T09:41:45;11.18;;;9.57;;
7334;SDS011;3708;42.632;23.378;2023-06-14T09:44:13;9.20;;;8.18;;
7334;SDS011;3708;42.632;23.378;2023-06-14T09:46:42;9.75;;;8.23;;
7334;SDS011;3708;42.632;23.378;2023-06-14T09:49:09;11.90;;;9.20;;
7334;SDS011;3708;42.632;23.378;2023-06-14T09:51:36;9.02;;;8.13;;
7334;SDS011;3708;42.632;23.378;2023-06-14T09:54:12;13.10;;;8.90;;
7334;SDS011;3708;42.632;23.378;2023-06-14T09:56:42;9.75;;;8.75;;
7334;SDS011;3708;42.632;23.378;2023-06-14T09:59:13;11.40;;;8.57;;
7334;SDS011;3708;42.632;23.378;2023-06-14T10:01:45;12.20;;;8.10;;
7334;SDS011;3708;42.632;23.378;2023-06-14T10:04:13;16.02;;;9.90;;
7334;SDS011;3708;42.632;23.378;2023-06-14T10:06:45;11.15;;;8.80;;
7334;SDS011;3708;42.632;23.378;2023-06-14T10:09:12;10.35;;;9.27;;
7334;SDS011;3708;42.632;23.378;2023-06-14T10:11:39;12.38;;;10.43;;
7334;SDS011;3708;42.632;23.378;2023-06-14T10:14:09;12.73;;;10.10;;
7334;SDS011;3708;42.632;23.378;2023-06-14T10:16:42;11.98;;;9.93;;
7334;SDS011;3708;42.632;23.378;2023-06-14T10:19:18;13.23;;;9.02;;
7334;SDS011;3708;42.632;23.378;2023-06-14T10:21:51;10.95;;;9.85;;
7334;SDS011;3708;42.632;23.378;2023-06-14T10:24:25;11.95;;;9.88;;
7334;SDS011;3708;42.632;23.378;2023-06-14T10:26:57;11.05;;;9.23;;
7334;SDS011;3708;42.632;23.378;2023-06-14T10:29:25;11.40;;;8.45;;
7334;SDS011;3708;42.632;23.378;2023-06-14T10:31:56;9.35;;;7.85;;
7334;SDS011;3708;42.632;23.378;2023-06-14T10:34:24;11.80;;;8.85;;
7334;SDS011;3708;42.632;23.378;2023-06-14T10:37:02;9.70;;;8.70;;
7334;SDS011;3708;42.632;23.378;2023-06-14T10:39:30;8.63;;;7.72;;
7334;SDS011;3708;42.632;23.378;2023-06-14T10:41:58;9.68;;;8.20;;
7334;SDS011;3708;42.632;23.378;2023-06-14T10:44:33;11.57;;;8.80;;
7334;SDS011;3708;42.632;23.378;2023-06-14T10:47:07;10.60;;;8.13;;
7334;SDS011;3708;42.632;23.378;2023-06-14T10:49:39;10.43;;;7.93;;
7334;SDS011;3708;42.632;23.378;2023-06-14T10:52:08;10.55;;;8.38;;
7334;SDS011;3708;42.632;23.378;2023-06-14T10:55:00;10.07;;;7.82;;
7334;SDS011;3708;42.632;23.378;2023-06-14T10:57:29;7.55;;;6.85;;
7334;SDS011;3708;42.632;23.378;2023-06-14T10:59:57;10.13;;;8.20;;
7334;SDS011;3708;42.632;23.378;2023-06-14T11:02:36;10.30;;;7.47;;
7334;SDS011;3708;42.632;23.378;2023-06-14T11:05:21;11.30;;;7.35;;
7334;SDS011;3708;42.632;23.378;2023-06-14T11:08:10;9.35;;;7.22;;
7334;SDS011;3708;42.632;23.378;2023-06-14T11:10:46;7.63;;;6.88;;
7334;SDS011;3708;42.632;23.378;2023-06-14T11:13:15;7.72;;;6.85;;
7334;SDS011;3708;42.632;23.378;2023-06-14T11:15:44;7.47;;;6.70;;
7334;SDS011;3708;42.632;23.378;2023-06-14T11:18:13;9.98;;;6.78;;
7334;SDS011;3708;42.632;23.378;2023-06-14T11:20:41;8.68;;;6.68;;
7334;SDS011;3708;42.632;23.378;2023-06-14T11:23:08;10.43;;;6.95;;
7334;SDS011;3708;42.632;23.378;2023-06-14T11:25:35;8.15;;;6.22;;
7334;SDS011;3708;42.632;23.378;2023-06-14T11:28:02;8.07;;;6.43;;
7334;SDS011;3708;42.632;23.378;2023-06-14T11:30:29;6.10;;;5.50;;
7334;SDS011;3708;42.632;23.378;2023-06-14T11:32:56;6.88;;;5.72;;
7334;SDS011;3708;42.632;23.378;2023-06-14T11:35:25;6.18;;;5.47;;
7334;SDS011;3708;42.632;23.378;2023-06-14T11:37:53;10.48;;;5.70;;
7334;SDS011;3708;42.632;23.378;2023-06-14T11:40:22;7.45;;;6.00;;
7334;SDS011;3708;42.632;23.378;2023-06-14T11:42:50;6.45;;;4.50;;
7334;SDS011;3708;42.632;23.378;2023-06-14T11:45:24;5.45;;;4.95;;
7334;SDS011;3708;42.632;23.378;2023-06-14T11:47:53;7.38;;;5.32;;
7334;SDS011;3708;42.632;23.378;2023-06-14T11:50:21;7.82;;;5.43;;
7334;SDS011;3708;42.632;23.378;2023-06-14T11:52:53;6.25;;;5.65;;
7334;SDS011;3708;42.632;23.378;2023-06-14T11:55:21;5.93;;;5.32;;
7334;SDS011;3708;42.632;23.378;2023-06-14T11:57:48;5.95;;;5.22;;
7334;SDS011;3708;42.632;23.378;2023-06-14T12:00:16;6.60;;;5.22;;
7334;SDS011;3708;42.632;23.378;2023-06-14T12:02:54;5.80;;;5.30;;
7334;SDS011;3708;42.632;23.378;2023-06-14T12:05:22;6.28;;;5.38;;
7334;SDS011;3708;42.632;23.378;2023-06-14T12:07:49;5.57;;;5.03;;
7334;SDS011;3708;42.632;23.378;2023-06-14T12:10:20;5.40;;;4.90;;
7334;SDS011;3708;42.632;23.378;2023-06-14T12:12:47;5.60;;;5.10;;
7334;SDS011;3708;42.632;23.378;2023-06-14T12:15:14;5.82;;;5.32;;
7334;SDS011;3708;42.632;23.378;2023-06-14T12:17:41;6.25;;;5.63;;
7334;SDS011;3708;42.632;23.378;2023-06-14T12:20:09;6.38;;;5.50;;
7334;SDS011;3708;42.632;23.378;2023-06-14T12:22:39;9.32;;;4.97;;
7334;SDS011;3708;42.632;23.378;2023-06-14T12:25:06;16.42;;;5.38;;
7334;SDS011;3708;42.632;23.378;2023-06-14T12:27:39;6.68;;;5.07;;
7334;SDS011;3708;42.632;23.378;2023-06-14T12:30:06;6.55;;;5.85;;
7334;SDS011;3708;42.632;23.378;2023-06-14T12:32:34;6.25;;;5.20;;
7334;SDS011;3708;42.632;23.378;2023-06-14T12:35:04;10.48;;;5.80;;
7334;SDS011;3708;42.632;23.378;2023-06-14T12:37:31;6.28;;;5.60;;
7334;SDS011;3708;42.632;23.378;2023-06-14T12:39:58;6.00;;;5.38;;
7334;SDS011;3708;42.632;23.378;2023-06-14T12:42:25;6.15;;;5.50;;
7334;SDS011;3708;42.632;23.378;2023-06-14T12:44:53;9.40;;;5.60;;
7334;SDS011;3708;42.632;23.378;2023-06-14T12:47:20;8.50;;;5.50;;
7334;SDS011;3708;42.632;23.378;2023-06-14T12:49:47;5.18;;;4.68;;
7334;SDS011;3708;42.632;23.378;2023-06-14T12:52:14;5.78;;;5.28;;
7334;SDS011;3708;42.632;23.378;2023-06-14T12:54:40;6.80;;;5.15;;
7334;SDS011;3708;42.632;23.378;2023-06-14T12:57:07;5.80;;;4.97;;
7334;SDS011;3708;42.632;23.378;2023-06-14T12:59:35;5.47;;;4.95;;
7334;SDS011;3708;42.632;23.378;2023-06-14T13:02:13;10.20;;;5.78;;
7334;SDS011;3708;42.632;23.378;2023-06-14T13:04:41;5.90;;;5.30;;
7334;SDS011;3708;42.632;23.378;2023-06-14T13:07:08;9.20;;;5.28;;
7334;SDS011;3708;42.632;23.378;2023-06-14T13:09:35;7.20;;;5.97;;
7334;SDS011;3708;42.632;23.378;2023-06-14T13:12:02;7.10;;;6.40;;
7334;SDS011;3708;42.632;23.378;2023-06-14T13:14:30;10.02;;;6.28;;
7334;SDS011;3708;42.632;23.378;2023-06-14T13:16:57;7.07;;;6.03;;
7334;SDS011;3708;42.632;23.378;2023-06-14T13:19:25;6.68;;;5.95;;
7334;SDS011;3708;42.632;23.378;2023-06-14T13:21:52;7.53;;;5.78;;
7334;SDS011;3708;42.632;23.378;2023-06-14T13:24:19;6.45;;;5.28;;
7334;SDS011;3708;42.632;23.378;2023-06-14T13:26:46;6.25;;;5.43;;
7334;SDS011;3708;42.632;23.378;2023-06-14T13:29:13;6.70;;;5.28;;
7334;SDS011;3708;42.632;23.378;2023-06-14T13:31:39;6.65;;;5.90;;
7334;SDS011;3708;42.632;23.378;2023-06-14T13:34:06;8.38;;;6.57;;
7334;SDS011;3708;42.632;23.378;2023-06-14T13:36:35;9.07;;;6.65;;
7334;SDS011;3708;42.632;23.378;2023-06-14T13:39:02;8.23;;;6.50;;
7334;SDS011;3708;42.632;23.378;2023-06-14T13:41:29;9.23;;;6.63;;
7334;SDS011;3708;42.632;23.378;2023-06-14T13:43:56;7.80;;;6.50;;
7334;SDS011;3708;42.632;23.378;2023-06-14T13:46:24;7.60;;;6.85;;
7334;SDS011;3708;42.632;23.378;2023-06-14T13:48:51;21.27;;;6.72;;
7334;SDS011;3708;42.632;23.378;2023-06-14T13:51:19;7.15;;;5.82;;
7334;SDS011;3708;42.632;23.378;2023-06-14T13:53:47;7.43;;;5.68;;
7334;SDS011;3708;42.632;23.378;2023-06-14T13:56:18;8.07;;;5.60;;
7334;SDS011;3708;42.632;23.378;2023-06-14T13:58:52;6.73;;;5.47;;
7334;SDS011;3708;42.632;23.378;2023-06-14T14:01:19;6.20;;;5.60;;
7334;SDS011;3708;42.632;23.378;2023-06-14T14:03:49;7.83;;;5.63;;
7334;SDS011;3708;42.632;23.378;2023-06-14T14:06:16;9.60;;;6.33;;
7334;SDS011;3708;42.632;23.378;2023-06-14T14:08:43;6.83;;;5.97;;
7334;SDS011;3708;42.632;23.378;2023-06-14T14:11:11;7.00;;;5.40;;
7334;SDS011;3708;42.632;23.378;2023-06-14T14:13:38;7.07;;;6.38;;
7334;SDS011;3708;42.632;23.378;2023-06-14T14:16:07;5.83;;;5.23;;
7334;SDS011;3708;42.632;23.378;2023-06-14T14:18:35;6.33;;;5.17;;
7334;SDS011;3708;42.632;23.378;2023-06-14T14:21:02;6.25;;;4.90;;
7334;SDS011;3708;42.632;23.378;2023-06-14T14:23:29;8.13;;;5.40;;
7334;SDS011;3708;42.632;23.378;2023-06-14T14:25:56;7.33;;;6.57;;
7334;SDS011;3708;42.632;23.378;2023-06-14T14:28:25;8.57;;;5.63;;
7334;SDS011;3708;42.632;23.378;2023-06-14T14:30:51;9.35;;;6.57;;
7334;SDS011;3708;42.632;23.378;2023-06-14T14:33:19;8.23;;;6.35;;
7334;SDS011;3708;42.632;23.378;2023-06-14T14:35:45;7.07;;;5.80;;
7334;SDS011;3708;42.632;23.378;2023-06-14T14:38:12;7.95;;;5.70;;
7334;SDS011;3708;42.632;23.378;2023-06-14T14:40:39;7.55;;;6.28;;
7334;SDS011;3708;42.632;23.378;2023-06-14T14:43:06;9.98;;;6.60;;
7334;SDS011;3708;42.632;23.378;2023-06-14T14:45:34;9.18;;;7.00;;
7334;SDS011;3708;42.632;23.378;2023-06-14T14:48:01;9.15;;;5.78;;
7334;SDS011;3708;42.632;23.378;2023-06-14T14:50:28;6.82;;;6.05;;
7334;SDS011;3708;42.632;23.378;2023-06-14T14:52:55;7.72;;;6.78;;
7334;SDS011;3708;42.632;23.378;2023-06-14T14:55:22;7.90;;;7.10;;
7334;SDS011;3708;42.632;23.378;2023-06-14T14:57:49;8.20;;;7.30;;